createdAt,value
2022-09-28T00:01:07.470Z,5.38
2022-09-28T00:03:35.427Z,5.41
2022-09-28T00:06:04.989Z,5.71
2022-09-28T00:08:35.067Z,5.55
2022-09-28T00:11:04.244Z,5.37
2022-09-28T00:13:33.245Z,5.22
2022-09-28T00:16:03.614Z,5.10
2022-09-28T00:18:32.239Z,5.10
2022-09-28T00:21:08.749Z,5.21
2022-09-28T00:23:59.755Z,5.27
2022-09-28T00:26:29.817Z,5.23
2022-09-28T00:28:59.485Z,5.51
2022-09-28T00:31:29.267Z,5.54
2022-09-28T00:33:58.070Z,5.21
2022-09-28T00:36:27.084Z,5.36
2022-09-28T00:38:57.481Z,5.40
2022-09-28T00:41:27.636Z,5.46
2022-09-28T00:44:16.018Z,5.61
2022-09-28T00:46:45.164Z,5.72
2022-09-28T00:49:17.691Z,5.72
2022-09-28T00:51:47.697Z,5.83
2022-09-28T00:54:17.276Z,5.67
2022-09-28T00:56:48.581Z,5.67
2022-09-28T00:59:17.258Z,5.78
2022-09-28T01:01:46.756Z,5.85
2022-09-28T01:04:14.826Z,5.79
2022-09-28T01:06:44.484Z,5.81
2022-09-28T01:09:15.388Z,5.85
2022-09-28T01:11:44.331Z,6.14
2022-09-28T01:14:16.164Z,6.22
2022-09-28T01:16:51.755Z,6.05
2022-09-28T01:19:38.852Z,5.82
2022-09-28T01:22:24.724Z,5.62
2022-09-28T01:25:00.180Z,5.57
2022-09-28T01:27:34.165Z,5.59
2022-09-28T01:30:07.433Z,5.72
2022-09-28T01:32:44.994Z,5.88
2022-09-28T01:35:17.028Z,5.74
2022-09-28T01:37:52.494Z,5.74
2022-09-28T01:40:22.764Z,5.80
2022-09-28T01:42:57.089Z,5.81
2022-09-28T01:45:30.232Z,5.86
2022-09-28T01:48:03.056Z,6.03
2022-09-28T01:50:37.840Z,6.20
2022-09-28T01:53:11.835Z,6.37
2022-09-28T01:55:43.985Z,6.52
2022-09-28T01:58:16.511Z,6.65
2022-09-28T02:00:49.421Z,6.78
2022-09-28T02:03:20.681Z,6.82
2022-09-28T02:05:56.165Z,6.86
2022-09-28T02:08:30.223Z,6.92
2022-09-28T02:11:04.521Z,6.91
2022-09-28T02:13:36.472Z,6.92
2022-09-28T02:16:10.792Z,7.01
2022-09-28T02:18:38.656Z,6.93
2022-09-28T02:21:11.974Z,6.95
2022-09-28T02:23:43.281Z,6.90
2022-09-28T02:26:15.079Z,6.97
2022-09-28T02:28:44.386Z,6.83
2022-09-28T02:31:12.413Z,6.92
2022-09-28T02:33:44.985Z,6.87
2022-09-28T02:36:12.866Z,6.84
2022-09-28T02:38:40.894Z,6.77
2022-09-28T02:41:17.896Z,6.72
2022-09-28T02:44:09.349Z,6.82
2022-09-28T02:46:48.245Z,6.76
2022-09-28T02:49:24.687Z,6.76
2022-09-28T02:52:16.441Z,6.68
2022-09-28T02:55:28.253Z,6.69
2022-09-28T02:58:15.119Z,6.66
2022-09-28T03:00:48.028Z,6.67
2022-09-28T03:03:20.963Z,6.71
2022-09-28T03:05:58.965Z,6.69
2022-09-28T03:08:33.625Z,6.65
2022-09-28T03:11:05.230Z,6.67
2022-09-28T03:13:34.505Z,6.60
2022-09-28T03:16:15.263Z,6.68
2022-09-28T03:18:43.472Z,6.66
2022-09-28T03:21:13.140Z,6.60
2022-09-28T03:23:43.559Z,6.57
2022-09-28T03:26:12.679Z,6.52
2022-09-28T03:28:41.524Z,6.50
2022-09-28T03:31:09.753Z,6.47
2022-09-28T03:33:39.119Z,6.41
2022-09-28T03:36:08.752Z,6.42
2022-09-28T03:38:36.793Z,6.50
2022-09-28T03:41:04.625Z,6.43
2022-09-28T03:43:32.736Z,6.48
2022-09-28T03:46:02.051Z,6.43
2022-09-28T03:48:32.997Z,6.37
2022-09-28T03:51:03.740Z,6.39
2022-09-28T03:53:31.782Z,6.36
2022-09-28T03:56:04.504Z,6.31
2022-09-28T03:58:32.733Z,6.25
2022-09-28T04:01:03.614Z,6.22
2022-09-28T04:03:32.003Z,6.20
2022-09-28T04:06:00.125Z,6.21
2022-09-28T04:08:29.448Z,6.22
2022-09-28T04:10:58.478Z,6.24
2022-09-28T04:13:26.666Z,6.06
2022-09-28T04:15:55.594Z,6.14
2022-09-28T04:18:24.511Z,6.13
2022-09-28T04:21:00.767Z,6.11
2022-09-28T04:23:30.322Z,6.07
2022-09-28T04:25:58.193Z,6.10
2022-09-28T04:28:43.659Z,6.03
2022-09-28T04:31:13.093Z,6.00
2022-09-28T04:33:41.086Z,5.98
2022-09-28T04:36:09.495Z,5.94
2022-09-28T04:38:52.267Z,5.86
2022-09-28T04:41:22.233Z,5.85
2022-09-28T04:43:50.523Z,5.93
2022-09-28T04:46:19.047Z,5.82
2022-09-28T04:48:47.042Z,5.94
2022-09-28T04:51:14.988Z,5.95
2022-09-28T04:53:44.308Z,5.93
2022-09-28T04:56:13.972Z,5.85
2022-09-28T04:58:42.748Z,5.87
2022-09-28T05:01:13.953Z,5.74
2022-09-28T05:03:42.352Z,5.66
2022-09-28T05:06:10.984Z,5.65
2022-09-28T05:08:38.983Z,5.51
2022-09-28T05:11:11.651Z,5.62
2022-09-28T05:13:42.730Z,5.78
2022-09-28T05:16:17.087Z,5.73
2022-09-28T05:20:04.693Z,5.70
2022-09-28T05:22:34.006Z,5.69
2022-09-28T05:25:02.966Z,5.68
2022-09-28T05:27:32.270Z,5.66
2022-09-28T05:30:00.333Z,5.81
2022-09-28T05:32:29.293Z,5.86
2022-09-28T05:34:57.431Z,5.84
2022-09-28T05:37:25.286Z,5.87
2022-09-28T05:39:53.245Z,5.92
2022-09-28T05:42:21.230Z,5.97
2022-09-28T05:44:50.438Z,5.98
2022-09-28T05:47:18.258Z,5.95
2022-09-28T05:49:46.171Z,5.93
2022-09-28T05:52:14.183Z,6.00
2022-09-28T05:54:42.184Z,6.10
2022-09-28T05:57:11.190Z,5.99
2022-09-28T05:59:39.241Z,6.10
2022-09-28T06:02:08.662Z,6.17
2022-09-28T06:04:36.995Z,6.16
2022-09-28T06:07:07.434Z,6.14
2022-09-28T06:09:35.385Z,6.09
2022-09-28T06:12:03.523Z,6.22
2022-09-28T06:14:31.478Z,6.06
2022-09-28T06:16:59.351Z,6.23
2022-09-28T06:19:28.927Z,6.16
2022-09-28T06:21:59.247Z,6.15
2022-09-28T06:24:27.334Z,6.18
2022-09-28T06:26:55.296Z,6.13
2022-09-28T06:29:35.682Z,6.04
2022-09-28T06:32:03.754Z,6.14
2022-09-28T06:34:33.011Z,6.07
2022-09-28T06:37:00.883Z,6.24
2022-09-28T06:39:30.876Z,6.12
2022-09-28T06:41:58.911Z,6.15
2022-09-28T06:44:26.986Z,6.19
2022-09-28T06:46:57.045Z,6.39
2022-09-28T06:49:27.099Z,6.48
2022-09-28T06:51:56.585Z,6.53
2022-09-28T06:54:28.367Z,6.55
2022-09-28T06:56:59.274Z,6.94
2022-09-28T06:59:30.095Z,7.02
2022-09-28T07:02:00.122Z,7.25
2022-09-28T07:04:28.149Z,7.43
2022-09-28T07:06:59.219Z,7.38
2022-09-28T07:09:32.803Z,7.76
2022-09-28T07:12:14.889Z,7.29
2022-09-28T07:14:47.680Z,7.27
2022-09-28T07:17:19.068Z,7.74
2022-09-28T07:20:10.738Z,7.79
2022-09-28T07:22:44.466Z,7.48
2022-09-28T07:25:45.341Z,7.67
2022-09-28T07:28:13.717Z,7.61
2022-09-28T07:30:44.936Z,7.55
2022-09-28T07:33:15.899Z,7.63
2022-09-28T07:35:52.318Z,8.00
2022-09-28T07:38:22.129Z,7.97
2022-09-28T07:41:09.614Z,7.90
2022-09-28T07:43:39.702Z,8.10
2022-09-28T07:46:11.993Z,8.15
2022-09-28T07:48:41.769Z,8.41
2022-09-28T07:51:10.815Z,8.67
2022-09-28T07:53:42.232Z,9.06
2022-09-28T07:56:10.301Z,8.55
2022-09-28T07:58:40.367Z,8.71
2022-09-28T08:01:10.375Z,9.07
2022-09-28T08:07:49.210Z,8.74
2022-09-28T08:10:22.603Z,8.75
2022-09-28T08:12:58.067Z,9.54
2022-09-28T08:15:28.569Z,10.15
2022-09-28T08:18:00.499Z,10.96
2022-09-28T08:20:51.653Z,11.03
2022-09-28T08:23:20.983Z,10.73
2022-09-28T08:25:52.576Z,9.55
2022-09-28T08:28:21.895Z,10.26
2022-09-28T08:30:50.184Z,10.94
2022-09-28T08:33:20.391Z,11.48
2022-09-28T08:35:48.825Z,11.18
2022-09-28T08:38:16.854Z,11.42
2022-09-28T08:40:58.346Z,11.67
2022-09-28T08:43:47.083Z,11.82
2022-09-28T08:46:18.455Z,13.00
2022-09-28T08:49:13.390Z,12.41
2022-09-28T08:51:49.732Z,11.75
2022-09-28T08:54:30.004Z,11.77
2022-09-28T08:57:04.132Z,11.56
2022-09-28T08:59:44.786Z,11.58
2022-09-28T09:02:17.373Z,11.65
2022-09-28T09:04:45.325Z,12.77
2022-09-28T09:07:37.622Z,13.71
2022-09-28T09:10:14.788Z,14.35
2022-09-28T09:12:48.853Z,15.10
2022-09-28T09:15:34.915Z,14.79
2022-09-28T09:18:19.819Z,14.97
2022-09-28T09:20:54.608Z,14.98
2022-09-28T09:23:36.461Z,14.79
2022-09-28T09:26:16.399Z,15.86
2022-09-28T09:29:03.948Z,16.10
2022-09-28T09:31:44.846Z,15.93
2022-09-28T09:34:48.746Z,15.78
2022-09-28T09:37:30.799Z,16.61
2022-09-28T09:40:18.189Z,16.84
2022-09-28T09:43:03.709Z,18.39
2022-09-28T09:45:44.627Z,18.81
2022-09-28T09:48:18.973Z,19.68
2022-09-28T09:50:50.708Z,19.51
2022-09-28T09:53:26.391Z,18.76
2022-09-28T09:55:58.344Z,18.59
2022-09-28T09:58:30.526Z,15.90
2022-09-28T10:01:06.836Z,15.13
2022-09-28T10:03:37.900Z,13.64
2022-09-28T10:06:09.425Z,12.97
2022-09-28T10:08:43.063Z,12.50
2022-09-28T10:11:16.501Z,12.24
2022-09-28T10:13:50.929Z,12.40
2022-09-28T10:16:20.960Z,12.54
2022-09-28T10:18:49.815Z,12.58
2022-09-28T10:21:21.673Z,12.33
2022-09-28T10:23:55.678Z,12.65
2022-09-28T10:26:26.752Z,12.96
2022-09-28T10:28:58.888Z,13.49
2022-09-28T10:31:40.199Z,15.49
2022-09-28T10:34:14.066Z,15.92
2022-09-28T10:36:49.547Z,16.83
2022-09-28T10:39:32.354Z,16.66
2022-09-28T10:42:03.553Z,15.68
2022-09-28T10:44:34.632Z,15.25
2022-09-28T10:47:07.963Z,14.33
2022-09-28T10:49:46.604Z,14.50
2022-09-28T10:52:39.896Z,13.69
2022-09-28T10:55:27.718Z,13.90
2022-09-28T10:57:55.836Z,13.84
2022-09-28T11:00:36.170Z,13.97
2022-09-28T11:03:06.088Z,14.28
2022-09-28T11:05:36.027Z,16.06
2022-09-28T11:08:08.382Z,17.05
2022-09-28T11:10:54.889Z,18.44
2022-09-28T11:13:46.367Z,19.01
2022-09-28T11:16:47.478Z,16.95
2022-09-28T11:19:38.708Z,17.35
2022-09-28T11:22:22.053Z,17.06
2022-09-28T11:24:53.802Z,18.64
2022-09-28T11:27:29.278Z,16.95
2022-09-28T11:30:00.135Z,16.05
2022-09-28T11:32:35.505Z,16.20
2022-09-28T11:35:20.700Z,17.64
2022-09-28T11:38:04.559Z,19.60
2022-09-28T11:41:06.025Z,18.65
2022-09-28T11:43:53.784Z,17.25
2022-09-28T11:46:48.288Z,16.83
2022-09-28T11:50:07.403Z,17.92
2022-09-28T11:52:41.409Z,19.30
2022-09-28T11:55:33.785Z,18.42
2022-09-28T11:58:11.003Z,19.85
2022-09-28T12:00:52.090Z,20.77
2022-09-28T12:03:33.622Z,19.28
2022-09-28T12:06:06.499Z,18.14
2022-09-28T12:08:39.722Z,18.60
2022-09-28T12:11:12.123Z,17.97
2022-09-28T12:13:44.472Z,17.44
2022-09-28T12:19:17.075Z,16.50
2022-09-28T12:21:51.685Z,16.66
2022-09-28T12:24:26.574Z,16.41
2022-09-28T12:27:05.789Z,16.63
2022-09-28T12:29:42.441Z,15.34
2022-09-28T12:32:42.815Z,15.70
2022-09-28T12:35:19.022Z,15.17
2022-09-28T12:38:30.738Z,15.34
2022-09-28T12:41:20.568Z,15.93
2022-09-28T12:44:08.739Z,15.91
2022-09-28T12:46:50.750Z,15.47
2022-09-28T12:53:11.497Z,15.61
2022-09-28T12:55:54.617Z,14.88
2022-09-28T12:58:39.162Z,15.11
2022-09-28T13:01:32.447Z,14.82
2022-09-28T13:04:37.228Z,14.69
2022-09-28T13:07:11.999Z,14.53
2022-09-28T13:09:55.810Z,14.46
2022-09-28T13:12:38.980Z,14.40
2022-09-28T13:15:44.141Z,13.93
2022-09-28T13:18:24.782Z,13.48
2022-09-28T13:21:01.641Z,13.36
2022-09-28T13:23:34.775Z,13.10
2022-09-28T13:26:11.139Z,12.95
2022-09-28T13:28:41.006Z,12.90
2022-09-28T13:31:14.163Z,12.95
2022-09-28T13:33:46.763Z,13.23
2022-09-28T13:36:38.113Z,13.48
2022-09-28T13:39:49.117Z,13.55
2022-09-28T13:42:30.279Z,13.75
2022-09-28T13:45:22.273Z,13.87
2022-09-28T13:48:26.066Z,14.11
2022-09-28T13:51:33.674Z,14.91
2022-09-28T13:54:27.013Z,15.37
2022-09-28T13:57:11.252Z,15.14
2022-09-28T13:59:56.145Z,15.02
2022-09-28T14:02:37.398Z,15.26
2022-09-28T14:05:48.586Z,16.53
2022-09-28T14:08:34.664Z,17.44
2022-09-28T14:11:26.865Z,21.04
2022-09-28T14:14:02.944Z,22.94
2022-09-28T14:16:32.640Z,20.97
2022-09-28T14:19:10.542Z,20.42
2022-09-28T14:22:13.979Z,23.05
2022-09-28T14:25:01.508Z,20.53
2022-09-28T14:28:11.293Z,19.36
2022-09-28T14:30:58.515Z,19.59
2022-09-28T14:33:30.047Z,18.57
2022-09-28T14:36:02.226Z,18.79
2022-09-28T14:38:53.245Z,19.01
2022-09-28T14:41:31.320Z,17.67
2022-09-28T14:44:09.847Z,16.29
2022-09-28T14:46:48.525Z,15.67
2022-09-28T14:49:51.317Z,14.47
2022-09-28T14:52:39.952Z,13.97
2022-09-28T14:55:23.596Z,13.38
2022-09-28T14:57:58.271Z,13.00
2022-09-28T15:00:30.283Z,12.74
2022-09-28T15:03:01.778Z,12.61
2022-09-28T15:05:33.359Z,12.55
2022-09-28T15:08:04.298Z,12.47
2022-09-28T15:10:35.302Z,12.36
2022-09-28T15:13:05.974Z,12.21
2022-09-28T15:15:36.705Z,12.07
2022-09-28T15:18:43.897Z,12.03
2022-09-28T15:21:12.942Z,11.83
2022-09-28T15:23:45.510Z,11.79
2022-09-28T15:26:27.617Z,11.84
2022-09-28T15:28:56.295Z,11.72
2022-09-28T15:31:27.336Z,11.93
2022-09-28T15:34:13.297Z,11.95
2022-09-28T15:36:43.215Z,12.01
2022-09-28T15:39:16.453Z,11.84
2022-09-28T15:41:47.462Z,11.97
2022-09-28T15:44:37.085Z,11.87
2022-09-28T15:47:09.481Z,11.82
2022-09-28T15:49:42.260Z,11.72
2022-09-28T15:52:26.035Z,11.67
2022-09-28T15:54:54.565Z,11.46
2022-09-28T15:57:38.041Z,11.52
2022-09-28T16:00:08.873Z,11.56
2022-09-28T16:02:36.801Z,11.50
2022-09-28T16:05:05.533Z,11.24
2022-09-28T16:07:38.533Z,11.29
2022-09-28T16:10:33.770Z,11.34
2022-09-28T16:13:15.607Z,11.23
2022-09-28T16:15:44.036Z,11.30
2022-09-28T16:18:22.122Z,11.16
2022-09-28T16:20:51.929Z,11.01
2022-09-28T16:23:24.309Z,10.99
2022-09-28T16:25:55.485Z,10.98
2022-09-28T16:28:48.983Z,10.83
2022-09-28T16:31:37.121Z,10.80
2022-09-28T16:34:20.795Z,10.71
2022-09-28T16:36:50.479Z,10.56
2022-09-28T16:39:20.667Z,10.53
2022-09-28T16:41:53.014Z,10.29
2022-09-28T16:44:28.472Z,10.26
2022-09-28T16:47:00.250Z,10.01
2022-09-28T16:49:28.345Z,9.83
2022-09-28T16:51:56.319Z,9.90
2022-09-28T16:54:43.587Z,9.62
2022-09-28T16:57:13.449Z,9.49
2022-09-28T16:59:42.874Z,9.46
2022-09-28T17:02:35.362Z,9.42
2022-09-28T17:05:07.183Z,9.33
2022-09-28T17:07:35.710Z,9.11
2022-09-28T17:10:03.687Z,8.79
2022-09-28T17:12:31.801Z,8.65
2022-09-28T17:15:01.455Z,8.86
2022-09-28T17:17:31.628Z,8.96
2022-09-28T17:19:59.627Z,8.94
2022-09-28T17:22:27.646Z,8.81
2022-09-28T17:24:55.459Z,8.47
2022-09-28T17:27:23.433Z,8.67
2022-09-28T17:29:51.542Z,8.59
2022-09-28T17:32:21.318Z,8.50
2022-09-28T17:35:00.867Z,8.34
2022-09-28T17:37:37.529Z,8.10
2022-09-28T17:40:16.443Z,8.17
2022-09-28T17:42:44.527Z,8.40
2022-09-28T17:45:12.462Z,8.43
2022-09-28T17:47:41.821Z,8.39
2022-09-28T17:50:21.879Z,8.33
2022-09-28T17:52:52.526Z,8.04
2022-09-28T17:55:22.588Z,8.13
2022-09-28T17:57:51.581Z,8.18
2022-09-28T18:00:20.701Z,8.24
2022-09-28T18:02:50.463Z,8.11
2022-09-28T18:05:19.652Z,7.72
2022-09-28T18:07:48.042Z,7.41
2022-09-28T18:10:22.380Z,7.90
2022-09-28T18:12:51.299Z,7.56
2022-09-28T18:15:20.370Z,7.55
2022-09-28T18:17:50.879Z,7.58
2022-09-28T18:20:18.858Z,7.81
2022-09-28T18:22:46.959Z,7.55
2022-09-28T18:25:15.033Z,7.48
2022-09-28T18:27:43.158Z,7.54
2022-09-28T18:30:11.655Z,7.15
2022-09-28T18:32:39.718Z,6.98
2022-09-28T18:35:11.197Z,7.17
2022-09-28T18:37:39.950Z,7.54
2022-09-28T18:40:09.668Z,7.25
2022-09-28T18:42:37.666Z,7.63
2022-09-28T18:45:07.738Z,7.92
2022-09-28T18:47:35.821Z,7.75
2022-09-28T18:50:11.564Z,7.93
2022-09-28T18:52:39.825Z,7.92
2022-09-28T18:55:08.748Z,7.67
2022-09-28T18:57:37.129Z,7.38
2022-09-28T19:00:07.905Z,7.52
2022-09-28T19:02:36.521Z,7.64
2022-09-28T19:05:05.781Z,7.27
2022-09-28T19:07:35.606Z,7.46
2022-09-28T19:10:03.952Z,7.58
2022-09-28T19:12:32.079Z,7.17
2022-09-28T19:15:00.448Z,6.74
2022-09-28T19:17:28.496Z,6.47
2022-09-28T19:19:56.749Z,6.69
2022-09-28T19:22:24.794Z,6.40
2022-09-28T19:24:54.145Z,6.33
2022-09-28T19:27:22.066Z,6.63
2022-09-28T19:29:50.468Z,6.58
2022-09-28T19:32:23.732Z,6.81
2022-09-28T19:34:51.652Z,7.17
2022-09-28T19:37:19.512Z,7.23
2022-09-28T19:39:47.452Z,7.08
2022-09-28T19:42:16.798Z,7.41
2022-09-28T19:44:44.872Z,7.11
2022-09-28T19:47:13.128Z,6.80
2022-09-28T19:49:43.585Z,6.52
2022-09-28T19:52:15.825Z,6.37
2022-09-28T19:54:45.518Z,6.37
2022-09-28T19:57:14.441Z,6.21
2022-09-28T19:59:50.697Z,5.99
2022-09-28T20:02:20.419Z,5.90
2022-09-28T20:04:48.563Z,6.24
2022-09-28T20:07:16.702Z,6.13
2022-09-28T20:09:45.186Z,5.99
2022-09-28T20:12:14.192Z,6.15
2022-09-28T20:14:43.381Z,5.90
2022-09-28T20:17:11.559Z,5.69
2022-09-28T20:19:39.464Z,5.53
2022-09-28T20:22:07.540Z,5.37
2022-09-28T20:24:35.389Z,5.32
2022-09-28T20:27:03.150Z,5.84
2022-09-28T20:29:33.374Z,5.77
2022-09-28T20:32:04.088Z,5.57
2022-09-28T20:34:33.522Z,5.59
2022-09-28T20:37:01.605Z,5.31
2022-09-28T20:39:29.651Z,5.54
2022-09-28T20:41:57.657Z,5.94
2022-09-28T20:44:25.674Z,5.54
2022-09-28T20:46:53.571Z,5.65
2022-09-28T20:49:22.797Z,5.78
2022-09-28T20:51:51.053Z,5.99
2022-09-28T20:54:21.377Z,5.74
2022-09-28T20:56:52.399Z,5.36
2022-09-28T20:59:22.849Z,5.15
2022-09-28T21:01:51.058Z,4.83
2022-09-28T21:04:19.480Z,4.82
2022-09-28T21:06:48.860Z,5.30
2022-09-28T21:09:24.315Z,5.50
2022-09-28T21:11:52.181Z,5.38
2022-09-28T21:14:20.855Z,5.68
2022-09-28T21:16:48.932Z,5.68
2022-09-28T21:19:16.896Z,5.43
2022-09-28T21:21:44.932Z,5.08
2022-09-28T21:24:14.525Z,4.90
2022-09-28T21:26:42.601Z,4.76
2022-09-28T21:29:22.226Z,4.92
2022-09-28T21:31:50.077Z,5.39
2022-09-28T21:34:20.207Z,5.26
2022-09-28T21:36:51.120Z,5.08
2022-09-28T21:39:21.406Z,5.13
2022-09-28T21:41:49.509Z,4.70
2022-09-28T21:44:17.748Z,4.80
2022-09-28T21:46:45.761Z,4.52
2022-09-28T21:49:14.364Z,4.44
2022-09-28T21:51:42.552Z,4.11
2022-09-28T21:54:12.119Z,4.43
2022-09-28T21:56:41.622Z,4.48
2022-09-28T21:59:09.518Z,4.47
2022-09-28T22:01:37.484Z,4.64
2022-09-28T22:04:05.911Z,4.73
2022-09-28T22:06:35.069Z,4.93
2022-09-28T22:09:02.952Z,4.61
2022-09-28T22:11:30.923Z,4.75
2022-09-28T22:14:01.507Z,4.72
2022-09-28T22:16:30.951Z,4.97
2022-09-28T22:18:59.596Z,4.91
2022-09-28T22:21:28.868Z,5.53
2022-09-28T22:24:00.824Z,5.33
2022-09-28T22:26:29.633Z,5.76
2022-09-28T22:29:00.748Z,5.45
2022-09-28T22:31:30.342Z,5.30
2022-09-28T22:33:58.880Z,5.28
2022-09-28T22:36:27.332Z,5.11
2022-09-28T22:38:56.461Z,5.25
2022-09-28T22:41:24.971Z,5.42
2022-09-28T22:43:54.548Z,5.85
2022-09-28T22:46:25.407Z,5.78
2022-09-28T22:48:55.258Z,5.67
2022-09-28T22:51:24.597Z,5.59
2022-09-28T22:53:52.633Z,5.21
2022-09-28T22:56:20.828Z,4.93
2022-09-28T22:58:48.773Z,5.21
2022-09-28T23:01:19.208Z,5.20
2022-09-28T23:03:49.163Z,5.05
2022-09-28T23:06:18.761Z,4.76
2022-09-28T23:08:48.262Z,5.00
2022-09-28T23:11:16.423Z,5.05
2022-09-28T23:13:44.486Z,4.94
2022-09-28T23:16:14.734Z,5.05
2022-09-28T23:18:42.852Z,4.65
2022-09-28T23:21:16.040Z,4.40
2022-09-28T23:23:44.455Z,4.29
2022-09-28T23:26:14.008Z,4.23
2022-09-28T23:28:42.089Z,4.06
2022-09-28T23:31:11.259Z,3.90
2022-09-28T23:33:39.266Z,3.79
2022-09-28T23:36:08.138Z,3.80
2022-09-28T23:38:37.564Z,4.51
2022-09-28T23:41:05.697Z,4.65
2022-09-28T23:43:33.568Z,4.41
2022-09-28T23:46:01.495Z,4.24
2022-09-28T23:48:29.529Z,3.96
2022-09-28T23:50:57.459Z,4.10
2022-09-28T23:53:25.284Z,4.02
2022-09-28T23:55:55.668Z,4.11
2022-09-28T23:58:24.038Z,4.89
